createdAt,value
2023-05-30T00:02:13.589Z,8.90
2023-05-30T00:05:17.216Z,9.45
2023-05-30T00:08:20.807Z,8.90
2023-05-30T00:11:24.838Z,7.97
2023-05-30T00:14:28.748Z,10.25
2023-05-30T00:17:33.853Z,8.18
2023-05-30T00:20:37.256Z,9.82
2023-05-30T00:23:40.666Z,8.77
2023-05-30T00:26:43.971Z,8.70
2023-05-30T00:29:49.772Z,8.13
2023-05-30T00:32:53.041Z,7.35
2023-05-30T00:36:02.680Z,7.93
2023-05-30T00:39:05.988Z,8.73
2023-05-30T00:42:09.609Z,9.03
2023-05-30T00:45:12.946Z,8.13
2023-05-30T00:48:16.412Z,8.10
2023-05-30T00:51:20.557Z,8.40
2023-05-30T00:54:24.451Z,7.33
2023-05-30T00:57:28.187Z,9.83
2023-05-30T01:00:32.634Z,8.45
2023-05-30T01:03:39.012Z,8.45
2023-05-30T01:06:43.027Z,9.80
2023-05-30T01:09:46.879Z,8.83
2023-05-30T01:13:01.865Z,9.43
2023-05-30T01:16:20.696Z,9.05
2023-05-30T01:19:47.751Z,7.40
2023-05-30T01:23:11.671Z,8.38
2023-05-30T01:26:34.893Z,9.67
2023-05-30T01:29:39.143Z,10.43
2023-05-30T01:32:43.244Z,8.57
2023-05-30T01:35:46.741Z,11.15
2023-05-30T01:38:50.055Z,9.27
2023-05-30T01:42:21.896Z,10.13
2023-05-30T01:45:51.202Z,9.03
2023-05-30T01:49:03.454Z,10.75
2023-05-30T01:52:18.992Z,10.50
2023-05-30T01:55:25.069Z,11.93
2023-05-30T01:58:31.622Z,9.33
2023-05-30T02:01:36.237Z,11.03
2023-05-30T02:04:39.710Z,9.57
2023-05-30T02:07:43.018Z,10.90
2023-05-30T02:10:47.115Z,11.15
2023-05-30T02:13:55.378Z,10.37
2023-05-30T02:17:00.640Z,9.13
2023-05-30T02:20:06.817Z,8.07
2023-05-30T02:23:10.111Z,7.82
2023-05-30T02:26:13.351Z,10.18
2023-05-30T02:29:16.864Z,10.13
2023-05-30T02:32:23.399Z,9.40
2023-05-30T02:35:28.644Z,10.65
2023-05-30T02:38:31.949Z,8.02
2023-05-30T02:41:37.964Z,9.38
2023-05-30T02:44:41.681Z,8.67
2023-05-30T02:47:45.180Z,10.70
2023-05-30T02:50:48.626Z,9.15
2023-05-30T02:53:56.839Z,10.35
2023-05-30T02:57:11.266Z,12.32
2023-05-30T03:00:31.803Z,8.23
2023-05-30T03:03:52.420Z,12.10
2023-05-30T03:07:09.303Z,10.13
2023-05-30T03:10:14.712Z,10.38
2023-05-30T03:13:24.733Z,10.20
2023-05-30T03:16:29.562Z,10.33
2023-05-30T03:19:34.336Z,8.37
2023-05-30T03:22:42.699Z,12.20
2023-05-30T03:25:46.295Z,11.65
2023-05-30T03:28:49.752Z,8.65
2023-05-30T03:31:58.084Z,9.77
2023-05-30T03:35:01.507Z,8.33
2023-05-30T03:38:06.475Z,12.85
2023-05-30T03:41:09.945Z,9.38
2023-05-30T03:44:13.378Z,10.23
2023-05-30T03:47:17.126Z,9.43
2023-05-30T03:50:20.349Z,11.70
2023-05-30T03:53:25.523Z,12.50
2023-05-30T03:56:28.720Z,17.67
2023-05-30T03:59:31.991Z,12.00
2023-05-30T04:02:37.878Z,13.93
2023-05-30T04:05:41.304Z,15.13
2023-05-30T04:08:44.582Z,11.73
2023-05-30T04:11:47.935Z,16.38
2023-05-30T04:14:51.261Z,15.55
2023-05-30T04:17:54.462Z,13.50
2023-05-30T04:20:58.123Z,11.67
2023-05-30T04:24:01.662Z,9.68
2023-05-30T04:27:05.303Z,12.07
2023-05-30T04:30:09.459Z,13.68
2023-05-30T04:33:12.835Z,16.13
2023-05-30T04:36:19.705Z,10.30
2023-05-30T04:39:24.314Z,15.02
2023-05-30T04:42:30.308Z,16.25
2023-05-30T04:45:38.228Z,9.40
2023-05-30T04:48:41.636Z,9.93
2023-05-30T04:51:45.980Z,9.70
2023-05-30T04:54:49.316Z,8.93
2023-05-30T04:57:52.607Z,8.75
2023-05-30T05:01:00.133Z,11.73
2023-05-30T05:04:06.582Z,14.50
2023-05-30T05:07:09.859Z,7.33
2023-05-30T05:10:13.186Z,9.70
2023-05-30T05:13:16.538Z,9.25
2023-05-30T05:16:19.905Z,7.93
2023-05-30T05:19:23.256Z,10.53
2023-05-30T05:22:26.530Z,10.33
2023-05-30T05:25:29.867Z,9.82
2023-05-30T05:28:33.160Z,12.55
2023-05-30T05:31:36.505Z,10.55
2023-05-30T05:34:39.819Z,10.97
2023-05-30T05:37:43.039Z,9.27
2023-05-30T05:40:46.348Z,10.30
2023-05-30T05:43:49.689Z,8.75
2023-05-30T05:46:53.090Z,10.40
2023-05-30T05:49:56.389Z,10.03
2023-05-30T05:52:59.688Z,11.63
2023-05-30T05:56:03.006Z,10.02
2023-05-30T05:59:06.315Z,11.27
2023-05-30T06:02:09.702Z,8.10
2023-05-30T06:05:13.144Z,9.97
2023-05-30T06:08:16.671Z,7.80
2023-05-30T06:11:20.161Z,11.00
2023-05-30T06:14:23.509Z,9.38
2023-05-30T06:17:28.022Z,7.35
2023-05-30T06:20:32.765Z,7.50
2023-05-30T06:23:37.317Z,7.70
2023-05-30T06:26:40.557Z,7.72
2023-05-30T06:29:43.908Z,7.22
2023-05-30T06:32:50.396Z,8.80
2023-05-30T06:35:53.682Z,7.63
2023-05-30T06:38:57.224Z,8.83
2023-05-30T06:42:02.172Z,6.55
2023-05-30T06:45:14.508Z,6.70
2023-05-30T06:48:17.772Z,7.93
2023-05-30T06:51:21.132Z,5.87
2023-05-30T06:54:25.014Z,6.63
2023-05-30T06:57:28.564Z,9.00
2023-05-30T07:00:32.205Z,6.90
2023-05-30T07:03:35.976Z,8.85
2023-05-30T07:06:39.352Z,9.00
2023-05-30T07:09:42.809Z,10.60
2023-05-30T07:12:46.461Z,7.22
2023-05-30T07:15:52.533Z,7.05
2023-05-30T07:19:08.242Z,7.70
2023-05-30T07:22:15.464Z,9.17
2023-05-30T07:25:18.888Z,5.80
2023-05-30T07:28:23.749Z,5.13
2023-05-30T07:31:27.078Z,6.32
2023-05-30T07:34:30.476Z,5.45
2023-05-30T07:37:35.893Z,5.50
2023-05-30T07:40:39.322Z,6.60
2023-05-30T07:43:42.930Z,6.38
2023-05-30T07:46:46.975Z,6.43
2023-05-30T07:49:50.387Z,5.45
2023-05-30T07:52:53.610Z,5.80
2023-05-30T07:55:56.984Z,7.03
2023-05-30T07:59:00.288Z,6.45
2023-05-30T08:02:03.582Z,6.47
2023-05-30T08:05:07.254Z,9.38
2023-05-30T08:08:10.689Z,7.57
2023-05-30T08:11:16.266Z,8.90
2023-05-30T08:14:19.984Z,7.15
2023-05-30T08:17:25.263Z,8.07
2023-05-30T08:20:29.976Z,7.13
2023-05-30T08:23:33.371Z,8.43
2023-05-30T08:26:36.701Z,10.50
2023-05-30T08:29:42.252Z,7.30
2023-05-30T08:32:48.654Z,7.00
2023-05-30T08:35:52.426Z,6.75
2023-05-30T08:39:13.794Z,7.13
2023-05-30T08:42:18.256Z,7.47
2023-05-30T08:45:21.780Z,7.75
2023-05-30T08:48:32.598Z,6.43
2023-05-30T08:51:38.582Z,7.55
2023-05-30T08:55:21.145Z,9.40
2023-05-30T08:58:29.271Z,7.23
2023-05-30T09:01:33.068Z,7.57
2023-05-30T09:04:37.205Z,8.15
2023-05-30T09:07:42.640Z,7.10
2023-05-30T09:10:49.577Z,7.07
2023-05-30T09:13:53.747Z,6.97
2023-05-30T09:16:57.403Z,9.20
2023-05-30T09:20:01.558Z,10.15
2023-05-30T09:23:05.828Z,14.82
2023-05-30T09:26:12.767Z,8.60
2023-05-30T09:29:16.116Z,8.47
2023-05-30T09:32:20.854Z,10.07
2023-05-30T09:35:26.600Z,8.02
2023-05-30T09:38:30.660Z,6.95
2023-05-30T09:41:35.007Z,9.33
2023-05-30T09:44:53.301Z,8.47
2023-05-30T09:47:56.846Z,9.27
2023-05-30T09:51:01.692Z,9.18
2023-05-30T09:54:06.260Z,9.65
2023-05-30T09:57:09.655Z,10.93
2023-05-30T10:00:17.332Z,9.77
2023-05-30T10:03:43.373Z,8.60
2023-05-30T10:06:55.145Z,12.13
2023-05-30T10:09:59.517Z,8.15
2023-05-30T10:13:03.519Z,9.30
2023-05-30T10:16:13.419Z,10.17
2023-05-30T10:19:25.995Z,10.95
2023-05-30T10:22:32.606Z,7.80
2023-05-30T10:25:45.019Z,9.25
2023-05-30T10:28:50.815Z,8.40
2023-05-30T10:31:56.543Z,15.37
2023-05-30T10:35:19.064Z,10.82
2023-05-30T10:38:24.624Z,7.38
2023-05-30T10:41:57.169Z,7.60
2023-05-30T10:45:42.515Z,8.10
2023-05-30T10:48:48.822Z,8.80
2023-05-30T10:52:02.309Z,10.05
2023-05-30T10:55:12.311Z,11.68
2023-05-30T10:58:43.941Z,9.68
2023-05-30T11:02:06.676Z,10.90
2023-05-30T11:05:11.593Z,9.23
2023-05-30T11:08:15.504Z,8.55
2023-05-30T11:11:22.493Z,9.30
2023-05-30T11:14:33.886Z,9.55
2023-05-30T11:17:40.053Z,10.20
2023-05-30T11:20:57.244Z,10.67
2023-05-30T11:24:04.863Z,11.05
2023-05-30T11:27:08.101Z,13.48
2023-05-30T11:30:21.393Z,8.45
2023-05-30T11:33:26.860Z,8.67
2023-05-30T11:36:30.189Z,9.33
2023-05-30T11:39:37.926Z,10.43
2023-05-30T11:42:41.465Z,10.20
2023-05-30T11:45:51.182Z,9.02
2023-05-30T11:48:58.480Z,8.27
2023-05-30T11:52:04.254Z,9.60
2023-05-30T11:55:08.074Z,11.32
2023-05-30T11:58:11.764Z,11.48
2023-05-30T12:01:14.990Z,11.70
2023-05-30T12:04:21.189Z,9.97
2023-05-30T12:07:24.929Z,10.63
2023-05-30T12:10:31.423Z,11.40
2023-05-30T12:13:34.687Z,9.52
2023-05-30T12:16:38.022Z,8.68
2023-05-30T12:19:44.654Z,8.87
2023-05-30T12:22:48.495Z,10.13
2023-05-30T12:25:55.889Z,11.00
2023-05-30T12:29:06.847Z,10.07
2023-05-30T12:32:10.908Z,10.32
2023-05-30T12:35:15.312Z,10.10
2023-05-30T12:38:20.172Z,8.37
2023-05-30T12:41:37.746Z,9.38
2023-05-30T12:44:53.622Z,10.50
2023-05-30T12:47:57.225Z,11.13
2023-05-30T12:51:01.333Z,9.40
2023-05-30T12:54:04.877Z,9.67
2023-05-30T12:57:09.460Z,9.50
2023-05-30T13:00:13.235Z,10.80
2023-05-30T13:03:16.582Z,13.23
2023-05-30T13:06:19.914Z,11.43
2023-05-30T13:09:23.397Z,12.87
2023-05-30T13:12:27.040Z,9.15
2023-05-30T13:15:32.058Z,9.65
2023-05-30T13:18:35.384Z,12.90
2023-05-30T13:21:42.951Z,11.10
2023-05-30T13:24:46.245Z,9.87
2023-05-30T13:27:51.789Z,11.25
2023-05-30T13:30:55.187Z,9.32
2023-05-30T13:33:58.913Z,11.50
2023-05-30T13:37:02.206Z,11.97
2023-05-30T13:40:06.001Z,9.70
2023-05-30T13:43:09.342Z,10.48
2023-05-30T13:46:12.694Z,9.45
2023-05-30T13:49:16.219Z,10.73
2023-05-30T13:52:19.523Z,9.63
2023-05-30T13:55:22.813Z,8.63
2023-05-30T13:58:26.033Z,8.00
2023-05-30T14:01:32.717Z,7.95
2023-05-30T14:04:36.088Z,9.25
2023-05-30T14:07:39.537Z,7.73
2023-05-30T14:10:44.985Z,8.23
2023-05-30T14:13:50.098Z,7.57
2023-05-30T14:16:54.272Z,8.23
2023-05-30T14:19:57.755Z,9.27
2023-05-30T14:23:03.138Z,10.45
2023-05-30T14:26:06.527Z,8.60
2023-05-30T14:29:09.815Z,11.77
2023-05-30T14:32:13.033Z,9.57
2023-05-30T14:35:17.013Z,9.65
2023-05-30T14:38:20.590Z,8.52
2023-05-30T14:41:24.532Z,10.20
2023-05-30T14:44:27.884Z,10.88
2023-05-30T14:47:31.162Z,12.93
2023-05-30T14:50:34.494Z,10.27
2023-05-30T14:53:37.945Z,9.38
2023-05-30T14:56:42.186Z,11.00
2023-05-30T14:59:45.437Z,9.50
2023-05-30T15:02:48.942Z,10.25
2023-05-30T15:05:52.308Z,9.15
2023-05-30T15:08:56.923Z,10.20
2023-05-30T15:12:00.432Z,10.63
2023-05-30T15:15:03.830Z,10.85
2023-05-30T15:18:07.186Z,10.90
2023-05-30T15:21:11.775Z,11.32
2023-05-30T15:24:15.092Z,10.05
2023-05-30T15:27:18.721Z,11.07
2023-05-30T15:30:21.922Z,8.63
2023-05-30T15:33:25.238Z,10.90
2023-05-30T15:36:28.572Z,10.65
2023-05-30T15:39:32.224Z,10.68
2023-05-30T15:42:35.591Z,8.70
2023-05-30T15:45:39.449Z,8.45
2023-05-30T15:48:42.704Z,10.27
2023-05-30T15:51:46.367Z,9.18
2023-05-30T15:54:50.498Z,9.05
2023-05-30T15:57:53.763Z,8.93
2023-05-30T16:00:56.976Z,13.18
2023-05-30T16:04:00.260Z,12.07
2023-05-30T16:07:03.600Z,8.55
2023-05-30T16:10:07.581Z,12.40
2023-05-30T16:13:10.927Z,12.47
2023-05-30T16:16:15.467Z,11.20
2023-05-30T16:19:18.817Z,10.10
2023-05-30T16:22:22.057Z,10.52
2023-05-30T16:25:25.450Z,9.02
2023-05-30T16:28:28.820Z,11.10
2023-05-30T16:31:32.076Z,12.95
2023-05-30T16:34:36.190Z,10.57
2023-05-30T16:37:39.522Z,9.80
2023-05-30T16:40:42.772Z,9.25
2023-05-30T16:43:46.112Z,11.23
2023-05-30T16:46:49.387Z,12.13
2023-05-30T16:49:52.798Z,10.90
2023-05-30T16:52:56.028Z,10.68
2023-05-30T16:56:00.456Z,11.25
2023-05-30T16:59:03.679Z,9.93
2023-05-30T17:02:07.310Z,10.25
2023-05-30T17:05:10.964Z,11.75
2023-05-30T17:08:15.620Z,12.43
2023-05-30T17:11:19.165Z,9.65
2023-05-30T17:14:22.436Z,12.43
2023-05-30T17:17:25.760Z,14.18
2023-05-30T17:20:29.215Z,9.32
2023-05-30T17:23:32.882Z,10.85
2023-05-30T17:26:36.826Z,13.30
2023-05-30T17:29:40.237Z,12.17
2023-05-30T17:32:43.547Z,11.52
2023-05-30T17:35:46.856Z,11.45
2023-05-30T17:38:50.133Z,11.13
2023-05-30T17:41:53.302Z,10.77
2023-05-30T17:44:56.758Z,11.00
2023-05-30T17:48:00.197Z,10.57
2023-05-30T17:51:04.126Z,10.90
2023-05-30T17:54:07.664Z,11.18
2023-05-30T17:57:10.970Z,10.05
2023-05-30T18:00:14.709Z,12.57
2023-05-30T18:03:18.590Z,10.35
2023-05-30T18:06:26.939Z,10.85
2023-05-30T18:09:31.156Z,10.63
2023-05-30T18:12:34.387Z,12.23
2023-05-30T18:15:37.754Z,10.93
2023-05-30T18:18:41.027Z,16.30
2023-05-30T18:21:44.238Z,13.55
2023-05-30T18:24:47.607Z,10.40
2023-05-30T18:27:50.864Z,10.25
2023-05-30T18:30:54.779Z,10.23
2023-05-30T18:33:58.079Z,10.63
2023-05-30T18:37:01.328Z,9.63
2023-05-30T18:40:06.302Z,10.98
2023-05-30T18:43:09.954Z,11.43
2023-05-30T18:46:13.875Z,11.23
2023-05-30T18:49:17.264Z,12.50
2023-05-30T18:52:20.596Z,10.73
2023-05-30T18:55:25.798Z,12.60
2023-05-30T18:58:30.598Z,11.23
2023-05-30T19:01:33.865Z,12.00
2023-05-30T19:04:37.672Z,12.50
2023-05-30T19:07:41.761Z,11.85
2023-05-30T19:10:46.209Z,12.57
2023-05-30T19:13:49.420Z,11.40
2023-05-30T19:16:52.685Z,10.67
2023-05-30T19:19:56.125Z,14.27
2023-05-30T19:22:59.451Z,11.73
2023-05-30T19:26:04.125Z,12.85
2023-05-30T19:29:07.469Z,13.77
2023-05-30T19:32:10.801Z,13.47
2023-05-30T19:35:14.056Z,11.98
2023-05-30T19:38:17.281Z,12.63
2023-05-30T19:41:21.991Z,12.30
2023-05-30T19:44:25.528Z,13.02
2023-05-30T19:47:28.711Z,16.97
2023-05-30T19:50:31.983Z,12.50
2023-05-30T19:53:35.182Z,13.38
2023-05-30T19:56:38.583Z,15.73
2023-05-30T19:59:41.816Z,12.82
2023-05-30T20:02:45.107Z,12.97
2023-05-30T20:05:48.395Z,14.15
2023-05-30T20:08:51.647Z,14.02
2023-05-30T20:11:54.977Z,12.98
2023-05-30T20:14:58.306Z,12.52
2023-05-30T20:18:02.618Z,14.17
2023-05-30T20:21:06.162Z,13.20
2023-05-30T20:24:09.376Z,11.70
2023-05-30T20:27:16.699Z,12.02
2023-05-30T20:30:20.112Z,15.55
2023-05-30T20:33:23.409Z,14.47
2023-05-30T20:36:26.716Z,17.08
2023-05-30T20:39:30.010Z,14.30
2023-05-30T20:42:33.741Z,14.32
2023-05-30T20:45:37.047Z,14.50
2023-05-30T20:48:40.345Z,13.73
2023-05-30T20:51:43.931Z,12.63
2023-05-30T20:54:47.470Z,15.13
2023-05-30T20:57:50.787Z,13.82
2023-05-30T21:00:53.988Z,14.23
2023-05-30T21:03:57.311Z,12.43
2023-05-30T21:07:01.123Z,12.10
2023-05-30T21:10:04.804Z,13.73
2023-05-30T21:13:08.081Z,11.18
2023-05-30T21:16:12.700Z,11.25
2023-05-30T21:19:16.130Z,12.77
2023-05-30T21:22:19.413Z,12.82
2023-05-30T21:25:22.650Z,14.77
2023-05-30T21:28:25.996Z,16.85
2023-05-30T21:31:30.342Z,11.85
2023-05-30T21:34:33.645Z,13.47
2023-05-30T21:37:36.943Z,11.98
2023-05-30T21:40:42.172Z,11.15
2023-05-30T21:43:48.444Z,13.57
2023-05-30T21:46:51.706Z,10.63
2023-05-30T21:49:54.851Z,10.63
2023-05-30T21:53:00.591Z,10.82
2023-05-30T21:56:03.906Z,11.88
2023-05-30T21:59:09.742Z,10.90
2023-05-30T22:02:12.978Z,11.38
2023-05-30T22:05:16.251Z,12.60
2023-05-30T22:08:19.500Z,12.10
2023-05-30T22:11:23.776Z,11.07
2023-05-30T22:14:27.126Z,13.50
2023-05-30T22:17:30.381Z,14.27
2023-05-30T22:20:44.322Z,14.90
2023-05-30T22:23:47.869Z,12.38
2023-05-30T22:26:51.187Z,15.70
2023-05-30T22:29:56.120Z,15.80
2023-05-30T22:32:59.561Z,13.55
2023-05-30T22:36:02.822Z,14.17
2023-05-30T22:39:06.051Z,14.77
2023-05-30T22:42:09.930Z,11.95
2023-05-30T22:45:14.048Z,12.80
2023-05-30T22:48:17.466Z,17.92
2023-05-30T22:51:20.984Z,11.53
2023-05-30T22:54:24.313Z,12.07
2023-05-30T22:57:27.513Z,12.90
2023-05-30T23:00:31.685Z,13.30
2023-05-30T23:03:35.229Z,13.05
2023-05-30T23:06:38.525Z,14.73
2023-05-30T23:09:41.799Z,12.00
2023-05-30T23:12:45.428Z,13.52
2023-05-30T23:15:48.753Z,12.50
2023-05-30T23:18:52.055Z,13.65
2023-05-30T23:21:55.384Z,12.20
2023-05-30T23:24:58.734Z,14.18
2023-05-30T23:28:02.307Z,12.38
2023-05-30T23:31:05.694Z,12.80
2023-05-30T23:34:09.247Z,13.60
2023-05-30T23:37:13.918Z,12.23
2023-05-30T23:40:17.394Z,15.40
2023-05-30T23:43:20.620Z,12.30
2023-05-30T23:46:23.937Z,11.82
2023-05-30T23:49:27.135Z,12.48
2023-05-30T23:52:30.518Z,13.50
2023-05-30T23:55:33.833Z,12.05
2023-05-30T23:58:37.139Z,14.48
